| time (UTC) | temp C | wind direction | speed KPH | gust KPH | rain 1hr cm | rain 24hr cm | rain mn cm | humidity % | barometer mb |
| 20260507231531 | 14 | 52 | 1.6 | 3.2 | 0.00 | 0.05 | 0.03 | 93 | 1016.7 |
| 20260507230528 | 14 | 0.0 | 0.0 | 0.03 | 0.05 | 0.03 | 93 | 1016.8 | |
| 20260507225521 | 14 | 0.0 | 0.0 | 0.03 | 0.05 | 0.03 | 93 | 1016.8 | |
| 20260507224539 | 15 | 0.0 | 0.0 | 0.03 | 0.05 | 0.03 | 92 | 1016.7 | |
| 20260507223517 | 15 | 0.0 | 0.0 | 0.03 | 0.05 | 0.03 | 92 | 1016.9 | |
| 20260507222610 | 15 | 270 | 0.0 | 3.2 | 0.03 | 0.05 | 0.03 | 92 | 1016.8 |
| 20260507221607 | 15 | 302 | 3.2 | 6.4 | 0.03 | 0.05 | 0.03 | 91 | 1016.8 |
| 20260507220605 | 15 | 0.0 | 0.0 | 0.00 | 0.03 | 0.00 | 90 | 1016.7 | |
| 20260507215618 | 15 | 0.0 | 0.0 | 0.00 | 0.03 | 0.03 | 89 | 1016.5 | |
| 20260507214555 | 15 | 0.0 | 0.0 | 0.00 | 0.03 | 0.03 | 89 | 1016.4 | |
| 20260507213554 | 15 | 0.0 | 0.0 | 0.00 | 0.03 | 0.03 | 88 | 1016.5 | |
| 20260507212551 | 15 | 0.0 | 0.0 | 0.00 | 0.03 | 0.03 | 88 | 1016.3 | |
| 20260507211544 | 15 | 0.0 | 0.0 | 0.00 | 0.03 | 0.03 | 88 | 1016.2 | |
| 20260507210541 | 15 | 0.0 | 0.0 | 0.00 | 0.03 | 0.03 | 88 | 1016.2 | |
| 20260507205539 | 15 | 0.0 | 0.0 | 0.00 | 0.03 | 0.03 | 88 | 1016.2 | |
| 20260507204532 | 15 | 0.0 | 0.0 | 0.00 | 0.03 | 0.03 | 87 | 1016.1 | |
| 20260507203530 | 15 | 0.0 | 0.0 | 0.00 | 0.03 | 0.03 | 87 | 1016.0 | |
| 20260507202528 | 15 | 0.0 | 0.0 | 0.00 | 0.03 | 0.03 | 87 | 1016.2 | |
| 20260507201520 | 15 | 0.0 | 0.0 | 0.00 | 0.03 | 0.03 | 86 | 1016.0 | |
| 20260507200518 | 15 | 0.0 | 0.0 | 0.00 | 0.03 | 0.03 | 86 | 1016.1 | |
| 20260507195516 | 15 | 0.0 | 0.0 | 0.00 | 0.03 | 0.03 | 86 | 1016.2 | |
| 20260507194608 | 15 | 0.0 | 0.0 | 0.00 | 0.03 | 0.03 | 85 | 1016.0 | |
| 20260507193607 | 15 | 0.0 | 0.0 | 0.00 | 0.03 | 0.03 | 84 | 1016.0 | |
| 20260507192604 | 15 | 0.0 | 0.0 | 0.00 | 0.03 | 0.03 | 84 | 1015.8 | |
| 20260507191557 | 15 | 0.0 | 0.0 | 0.00 | 0.03 | 0.03 | 83 | 1016.0 | |
| 20260507190555 | 15 | 0.0 | 0.0 | 0.00 | 0.03 | 0.03 | 83 | 1015.8 | |
| 20260507185553 | 15 | 0.0 | 0.0 | 0.00 | 0.03 | 0.03 | 82 | 1015.9 | |
| 20260507184545 | 16 | 0.0 | 0.0 | 0.00 | 0.03 | 0.03 | 81 | 1016.0 | |
| 20260507183543 | 16 | 0.0 | 0.0 | 0.00 | 0.03 | 0.03 | 81 | 1015.8 | |
| 20260507182601 | 16 | 0.0 | 1.6 | 0.00 | 0.03 | 0.03 | 80 | 1015.7 | |
| 20260507181533 | 16 | 0.0 | 0.0 | 0.00 | 0.03 | 0.03 | 80 | 1015.6 | |
| 20260507180531 | 16 | 315 | 1.6 | 3.2 | 0.00 | 0.03 | 0.03 | 80 | 1015.6 |
| 20260507175529 | 16 | 309 | 1.6 | 3.2 | 0.00 | 0.03 | 0.03 | 80 | 1015.4 |
| 20260507174522 | 16 | 307 | 1.6 | 3.2 | 0.00 | 0.03 | 0.03 | 79 | 1015.5 |
| 20260507173519 | 16 | 0.0 | 1.6 | 0.00 | 0.03 | 0.03 | 78 | 1015.4 | |
| 20260507172517 | 17 | 0.0 | 1.6 | 0.00 | 0.03 | 0.03 | 77 | 1015.3 | |
| 20260507171615 | 17 | 0.0 | 0.0 | 0.00 | 0.03 | 0.03 | 75 | 1015.4 | |
| 20260507170607 | 17 | 0.0 | 1.6 | 0.00 | 0.03 | 0.03 | 73 | 1015.4 | |
| 20260507165606 | 17 | 0.0 | 1.6 | 0.00 | 0.03 | 0.03 | 71 | 1015.3 | |
| 20260507164624 | 17 | 180 | 0.0 | 3.2 | 0.00 | 0.03 | 0.03 | 71 | 1015.4 |
| 20260507163556 | 18 | 194 | 1.6 | 4.8 | 0.00 | 0.03 | 0.03 | 71 | 1015.4 |
| 20260507162554 | 18 | 180 | 0.0 | 3.2 | 0.00 | 0.03 | 0.03 | 71 | 1015.4 |
| 20260507161552 | 18 | 180 | 0.0 | 3.2 | 0.00 | 0.03 | 0.03 | 71 | 1015.4 |
| 20260507160604 | 18 | 0.0 | 3.2 | 0.00 | 0.03 | 0.03 | 68 | 1015.4 | |
| 20260507155542 | 18 | 246 | 1.6 | 4.8 | 0.00 | 0.03 | 0.03 | 69 | 1015.4 |
| 20260507154540 | 18 | 219 | 1.6 | 4.8 | 0.00 | 0.03 | 0.03 | 70 | 1015.4 |
| 20260507153532 | 19 | 202 | 1.6 | 4.8 | 0.00 | 0.03 | 0.03 | 70 | 1015.5 |
| 20260507152530 | 19 | 149 | 3.2 | 6.4 | 0.00 | 0.03 | 0.03 | 70 | 1015.5 |
| 20260507151528 | 19 | 158 | 3.2 | 6.4 | 0.00 | 0.03 | 0.03 | 70 | 1015.5 |
| 20260507150601 | 19 | 174 | 3.2 | 8.0 | 0.00 | 0.03 | 0.03 | 70 | 1015.6 |
| 20260507145518 | 19 | 46 | 1.6 | 4.8 | 0.00 | 0.03 | 0.03 | 70 | 1015.5 |
| 20260507144516 | 19 | 167 | 3.2 | 6.4 | 0.00 | 0.03 | 0.03 | 70 | 1015.6 |
| 20260507143609 | 19 | 227 | 1.6 | 4.8 | 0.00 | 0.03 | 0.03 | 70 | 1015.7 |
| 20260507142607 | 19 | 112 | 1.6 | 3.2 | 0.00 | 0.03 | 0.03 | 70 | 1015.7 |
| 20260507141605 | 19 | 178 | 1.6 | 4.8 | 0.00 | 0.03 | 0.03 | 71 | 1015.8 |
| 20260507140557 | 19 | 270 | 1.6 | 3.2 | 0.00 | 0.03 | 0.03 | 71 | 1015.9 |
| 20260507135555 | 19 | 196 | 1.6 | 6.4 | 0.00 | 0.03 | 0.03 | 71 | 1015.8 |
| 20260507134553 | 19 | 205 | 3.2 | 6.4 | 0.00 | 0.03 | 0.03 | 71 | 1015.9 |
| 20260507133545 | 19 | 202 | 1.6 | 6.4 | 0.00 | 0.03 | 0.03 | 71 | 1015.9 |
| 20260507132543 | 19 | 247 | 3.2 | 6.4 | 0.00 | 0.03 | 0.03 | 71 | 1015.9 |
| 20260507131541 | 20 | 218 | 1.6 | 8.0 | 0.00 | 0.03 | 0.03 | 70 | 1015.9 |
| 20260507130534 | 20 | 150 | 3.2 | 6.4 | 0.00 | 0.03 | 0.03 | 71 | 1015.9 |
| 20260507125532 | 19 | 212 | 3.2 | 6.4 | 0.00 | 0.03 | 0.03 | 72 | 1016.0 |
| 20260507124530 | 19 | 180 | 3.2 | 6.4 | 0.00 | 0.03 | 0.03 | 73 | 1016.1 |
| 20260507123527 | 19 | 201 | 3.2 | 6.4 | 0.00 | 0.03 | 0.03 | 73 | 1016.1 |
| 20260507122520 | 18 | 131 | 3.2 | 8.0 | 0.00 | 0.03 | 0.03 | 74 | 1016.2 |
| 20260507121518 | 18 | 209 | 3.2 | 9.7 | 0.00 | 0.03 | 0.03 | 75 | 1016.2 |
| 20260507120516 | 18 | 180 | 4.8 | 6.4 | 0.00 | 0.03 | 0.03 | 75 | 1016.3 |
| 20260507115608 | 18 | 208 | 4.8 | 6.4 | 0.00 | 0.03 | 0.03 | 76 | 1016.2 |
| 20260507114606 | 18 | 150 | 1.6 | 6.4 | 0.00 | 0.03 | 0.03 | 75 | 1016.3 |
| 20260507113604 | 18 | 143 | 3.2 | 6.4 | 0.00 | 0.03 | 0.03 | 75 | 1016.3 |
| 20260507112556 | 18 | 211 | 3.2 | 6.4 | 0.00 | 0.03 | 0.03 | 77 | 1016.4 |
| 20260507111554 | 18 | 227 | 4.8 | 11.3 | 0.03 | 0.03 | 0.03 | 78 | 1016.4 |
| 20260507110552 | 18 | 200 | 1.6 | 4.8 | 0.03 | 0.03 | 0.03 | 79 | 1016.3 |
| 20260507105545 | 18 | 223 | 3.2 | 6.4 | 0.03 | 0.03 | 0.03 | 79 | 1016.5 |
| 20260507104542 | 17 | 251 | 4.8 | 12.9 | 0.03 | 0.03 | 0.03 | 80 | 1016.5 |
| 20260507103601 | 17 | 206 | 3.2 | 8.0 | 0.03 | 0.03 | 0.03 | 80 | 1016.5 |
| 20260507102533 | 17 | 208 | 1.6 | 8.0 | 0.03 | 0.03 | 0.03 | 79 | 1016.6 |
| 20260507101531 | 18 | 201 | 4.8 | 9.7 | 0.00 | 0.00 | 0.00 | 78 | 1016.6 |
| 20260507100549 | 18 | 180 | 4.8 | 6.4 | 0.00 | 0.00 | 0.00 | 78 | 1016.7 |
| 20260507095521 | 18 | 251 | 3.2 | 6.4 | 0.00 | 0.00 | 0.00 | 78 | 1016.6 |
| 20260507094539 | 17 | 218 | 3.2 | 6.4 | 0.00 | 0.00 | 0.00 | 77 | 1016.5 |
| 20260507093517 | 18 | 208 | 1.6 | 4.8 | 0.00 | 0.00 | 0.00 | 76 | 1016.4 |
| 20260507092609 | 18 | 158 | 3.2 | 8.0 | 0.00 | 0.00 | 0.00 | 74 | 1016.3 |
| 20260507091607 | 18 | 250 | 3.2 | 8.0 | 0.00 | 0.00 | 0.00 | 72 | 1016.3 |
| 20260507090705 | 18 | 304 | 4.8 | 12.9 | 0.00 | 0.00 | 0.00 | 71 | 1016.2 |
| 20260507085558 | 18 | 213 | 4.8 | 9.7 | 0.00 | 0.00 | 0.00 | 71 | 1016.2 |
| 20260507084556 | 18 | 175 | 6.4 | 11.3 | 0.00 | 0.00 | 0.00 | 70 | 1016.0 |
| 20260507083554 | 19 | 175 | 4.8 | 11.3 | 0.00 | 0.00 | 0.00 | 69 | 1015.9 |
| 20260507082612 | 19 | 213 | 4.8 | 9.7 | 0.00 | 0.00 | 0.00 | 70 | 1015.8 |
| 20260507081544 | 18 | 241 | 4.8 | 9.7 | 0.00 | 0.00 | 0.00 | 71 | 1015.7 |
| 20260507080602 | 18 | 225 | 6.4 | 11.3 | 0.00 | 0.00 | 0.00 | 71 | 1015.7 |
| 20260507075539 | 18 | 213 | 4.8 | 11.3 | 0.00 | 0.00 | 0.00 | 70 | 1015.6 |
| 20260507074532 | 19 | 126 | 1.6 | 4.8 | 0.00 | 0.00 | 0.00 | 72 | 1015.5 |
| 20260507073530 | 18 | 156 | 1.6 | 3.2 | 0.00 | 0.00 | 0.00 | 74 | 1015.6 |
| 20260507072528 | 18 | 159 | 3.2 | 6.4 | 0.00 | 0.00 | 0.00 | 75 | 1015.5 |
| 20260507071540 | 18 | 193 | 0.0 | 3.2 | 0.00 | 0.00 | 0.00 | 78 | 1015.5 |
| 20260507070518 | 17 | 0.0 | 3.2 | 0.00 | 0.00 | 0.00 | 81 | 1015.3 | |
| 20260507065516 | 16 | 0.0 | 0.0 | 0.00 | 0.00 | 0.00 | 81 | 1015.3 | |
| 20260507064030 | 16 | 0.0 | 1.6 | 0.00 | 0.00 | 0.00 | 79 | 1015.3 | |
| 20260507063027 | 16 | 0.0 | 1.6 | 0.00 | 0.00 | 0.00 | 77 | 1015.3 | |
| 20260507062026 | 16 | 0.0 | 1.6 | 0.00 | 0.00 | 0.00 | 74 | 1015.2 | |
| 20260507061023 | 17 | 225 | 0.0 | 3.2 | 0.00 | 0.00 | 0.00 | 72 | 1015.1 |
| 20260507060042 | 17 | 0.0 | 3.2 | 0.00 | 0.00 | 0.00 | 71 | 1015.0 | |
| 20260507055019 | 17 | 180 | 0.0 | 3.2 | 0.00 | 0.00 | 0.00 | 70 | 1014.9 |
| 20260507054017 | 17 | 225 | 0.0 | 3.2 | 0.00 | 0.00 | 0.00 | 71 | 1014.6 |
| 20260507053015 | 16 | 0.0 | 1.6 | 0.00 | 0.00 | 0.00 | 71 | 1014.6 | |
| 20260507052133 | 16 | 0.0 | 0.0 | 0.00 | 0.00 | 0.00 | 72 | 1014.5 | |
| 20260507051111 | 16 | 0.0 | 0.0 | 0.00 | 0.00 | 0.00 | 72 | 1014.4 | |
| 20260507050108 | 15 | 0.0 | 1.6 | 0.00 | 0.00 | 0.00 | 72 | 1014.4 | |
| 20260507045106 | 15 | 0.0 | 3.2 | 0.00 | 0.00 | 0.00 | 73 | 1014.4 | |
| 20260507044104 | 15 | 0.0 | 0.0 | 0.00 | 0.00 | 0.00 | 74 | 1014.2 | |
| 20260507043103 | 15 | 0.0 | 0.0 | 0.00 | 0.00 | 0.00 | 75 | 1014.1 | |
| 20260507042100 | 15 | 0.0 | 0.0 | 0.00 | 0.00 | 0.00 | 74 | 1013.9 | |
| 20260507041058 | 15 | 0.0 | 0.0 | 0.00 | 0.00 | 0.00 | 74 | 1013.6 | |
| 20260507040056 | 14 | 0.0 | 0.0 | 0.00 | 0.00 | 0.00 | 74 | 1013.6 | |
| 20260507035054 | 14 | 0.0 | 0.0 | 0.00 | 0.00 | 0.00 | 73 | 1013.6 | |
| 20260507034052 | 14 | 0.0 | 1.6 | 0.00 | 0.00 | 0.00 | 74 | 1013.8 | |
| 20260507033050 | 14 | 0.0 | 1.6 | 0.00 | 0.00 | 0.00 | 74 | 1013.8 | |
| 20260507032048 | 14 | 0.0 | 0.0 | 0.00 | 0.00 | 0.00 | 74 | 1013.6 | |
| 20260507031046 | 14 | 0.0 | 3.2 | 0.00 | 0.00 | 0.00 | 74 | 1013.6 | |
| 20260507030043 | 14 | 0.0 | 0.0 | 0.00 | 0.00 | 0.00 | 74 | 1013.3 | |
| 20260507025041 | 14 | 0.0 | 0.0 | 0.00 | 0.00 | 0.00 | 73 | 1012.9 | |
| 20260507024039 | 15 | 0.0 | 0.0 | 0.00 | 0.00 | 0.00 | 73 | 1012.8 | |
| 20260507023037 | 15 | 0.0 | 0.0 | 0.00 | 0.00 | 0.00 | 72 | 1012.9 | |
| 20260507022115 | 15 | 0.0 | 0.0 | 0.00 | 0.00 | 0.00 | 72 | 1013.0 | |
| 20260507021113 | 15 | 0.0 | 0.0 | 0.00 | 0.00 | 0.00 | 72 | 1012.9 | |
| 20260507020031 | 15 | 0.0 | 0.0 | 0.00 | 0.00 | 0.00 | 71 | 1012.7 | |
| 20260507015029 | 15 | 0.0 | 0.0 | 0.00 | 0.00 | 0.00 | 70 | 1012.8 | |
| 20260507014026 | 15 | 0.0 | 0.0 | 0.00 | 0.00 | 0.00 | 70 | 1012.9 | |
| 20260507013024 | 15 | 0.0 | 0.0 | 0.00 | 0.00 | 0.00 | 69 | 1012.9 | |
| 20260507012022 | 15 | 0.0 | 0.0 | 0.00 | 0.00 | 0.00 | 68 | 1012.5 | |
| 20260507010018 | 15 | 0.0 | 0.0 | 0.00 | 0.00 | 0.00 | 66 | 1012.5 | |
| 20260507005016 | 15 | 0.0 | 0.0 | 0.00 | 0.00 | 0.00 | 64 | 1012.6 | |
| 20260507004114 | 16 | 0.0 | 0.0 | 0.00 | 0.00 | 0.00 | 63 | 1012.7 | |
| 20260507003112 | 16 | 315 | 0.0 | 3.2 | 0.00 | 0.00 | 0.00 | 63 | 1012.9 |
| 20260507002109 | 15 | 187 | 1.6 | 6.4 | 0.00 | 0.00 | 0.00 | 63 | 1013.0 |
| 20260507001108 | 15 | 173 | 1.6 | 3.2 | 0.00 | 0.00 | 0.00 | 64 | 1013.0 |
| 20260507000105 | 14 | 219 | 1.6 | 3.2 | 0.00 | 0.00 | 0.00 | 65 | 1013.1 |
| 20260506235103 | 14 | 270 | 0.0 | 3.2 | 0.00 | 0.00 | 0.00 | 66 | 1013.0 |
| 20260506234101 | 13 | 210 | 0.0 | 3.2 | 0.00 | 0.00 | 0.00 | 68 | 1013.1 |
| 20260506233059 | 13 | 243 | 1.6 | 6.4 | 0.00 | 0.00 | 0.00 | 68 | 1012.8 |
| 20260506232057 | 13 | 0.0 | 1.6 | 0.00 | 0.00 | 0.00 | 67 | 1012.4 |